AirNav   Everest Fuels
 
 1483 users online  

1FL4 VRS, Inc. Heliport
St. Petersburg, Florida, USA


FAA INFORMATION EFFECTIVE 20 JUNE 2019

Location

FAA Identifier: 1FL4
Lat/Long: 27-48-48.7800N / 082-40-56.0400W
27-48.813000N / 082-40.934000W
27.8135500 / -82.6822333
(estimated)
Elevation: 43 ft. / 13 m (estimated)
From city: 4 miles NW of ST. PETERSBURG, FL
Time zone: UTC -4 (UTC -5 during Standard Time)
Zip code: 33714

Heliport Operations

Heliport use: Private use. Permission required prior to landing
Activation date: 08/2018
Control tower: no
ARTCC: MIAMI CENTER
FSS: SAINT PETERSBURG FLIGHT SERVICE STATION
Attendance: 
Wind indicator: yes
Segmented circle: no

Heliport Communications

WX ASOS at SPG (4 nm SE): 118.875 (727-821-4334)
WX ASOS at PIE (6 nm N): PHONE 727-531-3456
WX AWOS-3P at CLW (11 nm NW): 119.225 (727-449-2184)
WX ASOS at TPA (13 nm NE): PHONE 813-873-7228
WX AWOS-3 at TPF (14 nm NE): 118.925 (813-251-6824)

Nearby radio navigation aids

VOR radial/distance  VOR name  Freq  Var
PIEr184/5.7ST PETERSBURG VORTAC116.4005W
SRQr351/25.2SARASOTA VOR/DME117.0005W
LALr253/36.9LAKELAND VORTAC116.0001E

 
NDB name  Hdg/Dist  Freq  Var  ID
CAPOK179/11.036005WPI .--. ..

Heliport Services

Runway Information

Helipad H1

Dimensions: 60 x 70 ft. / 18 x 21 m
Surface: concrete, in fair condition
Elevation: 43.0 ft.
Traffic pattern: leftleft

Heliport Ownership and Management from official FAA records

Ownership: Privately-owned
Owner: VEHICLE RECOVERY SERVICE, INC.
WAYNE PARKER/MICHELLE MULLINS, 4550 35TH ST. NORTH
ST PETERSBURG, FL 33714
Phone 727-600-9011
Manager: MICHELLE MULLINS
4550 35TH ST NORTH
ST PETERSBURG, FL 33714
Phone 727-600-9011

Heliport Operational Statistics

Aircraft based on the field: 1
Helicopters: 1
    

Additional Remarks

OWNER DESIRES ARPT BE CHARTED.

Instrument Procedures

There are no published instrument procedures at 1FL4.

Some nearby airports with instrument procedures:

KSPG - Albert Whitted Airport (4 nm SE)
KPIE - St Pete-Clearwater International Airport (6 nm N)
KMCF - MacDill Air Force Base (9 nm E)
KCLW - Clearwater Air Park (11 nm NW)
KTPA - Tampa International Airport (13 nm NE)
KTPF - Peter O Knight Airport (14 nm NE)
 
Loc | Ops | Rwys | IFR | FBO | Links
Com | Nav | Svcs | Stats | Notes
Aerial photo
No photo
 
Airport distance calculator
Flying to VRS, Inc. Heliport? Find the distance to fly.

From to 1FL4

Sunrise and sunset
Times for 20-Jun-2019
 Local
(UTC-4)
 Zulu
(UTC)
Morning civil twilight06:0910:09
Sunrise06:3610:36
Sunset20:2800:28
Evening civil twilight20:5500:55

Current date and time
Zulu (UTC)  20-Jun-2019 14:49:37
Local (UTC-4)  20-Jun-2019 10:49:37
 
METAR
KSPG 
4nm SE 
201402Z 23012KT 10SM SCT020 30/24 A3004 RMK AO2 T03000244
KPIE 
6nm N 
201353Z 21011KT 10SM FEW025 30/24 A3005 RMK AO2 SLP175 T03000239
KMCF 
9nm E 
201356Z AUTO 21010KT 10SM FEW200 30/25 A3006 RMK AO2 SLP182 T03040252 FZRANO $
KCLW 
11nm NW 
201435Z AUTO 23007G14KT 10SM CLR 30/21 A3005 RMK AO2
KTPA 
12nm NE 
201353Z 23011KT 10SM FEW025 FEW250 31/24 A3006 RMK AO2 SLP177 T03060239 $
KTPF 
14nm NE 
201435Z AUTO 21010G14KT 10SM BKN023 BKN030 BKN100 30/26 A3006 RMK AO2
TAF
KPIE 
6nm N 
201123Z 2012/2112 23007KT P6SM FEW020 SCT200 FM201500 24012KT P6SM SCT030 SCT200 FM210300 22006KT P6SM FEW200
KMCF 
9nm E 
201120Z 2011/2114 15009KT 9999 FEW018 SCT025 QNH2996INS BECMG 2014/2015 19012G18KT 9999 FEW025 QNH2997INS BECMG 2022/2023 20009KT 9999 FEW018 SCT025 QNH3000INS BECMG 2107/2108 21009KT 9999 SCT010 BKN020 QNH3001INS TX31/2018Z TN26/2011Z
KTPA 
12nm NE 
201123Z 2012/2118 22008KT P6SM FEW030 SCT200 FM201500 23011KT P6SM SCT030 SCT200 FM210300 23008KT P6SM FEW200
NOTAMs
Click for the latest NOTAMs
NOTAMs are issued by the DoD/FAA and will open in a separate window not controlled by AirNav.

 

 
 

Would you like to see your business listed on this page?

 If your business provides an interesting product or service to pilots, flight crews, aircraft, or users of the VRS, Inc. Heliport, you should consider listing it here.  To start the listing process, click on the button below
 
Add a business
 

Other Pages about VRS, Inc. Heliport

Update a link
 
Copyright © AirNav, LLC. All rights reserved. Privacy Policy  Contact